Rhourd El Adra — 7TBS — position and weather

sailwx.info

Track history (hours):
 
Tides and Currents Weather Stations Pressure Air Temp Water Temp Dewpoint Dewpoint Depression Visibility Wind Speed Wind Dir Waves Ship Positions

Rhourd El Adra

Last reported at 2014-Oct-19 23:25 UTC. Time now 2014-Oct-21 18:29 UTC.
Position N 39°51' E 012°27'.

Length 156 m; draft 9 m.

Type: Ship (hazmat cat C). MMSI: 605026210.

Date/timePositionNaut miles runAvg speedWind from/ knotsBaromVisibWave heightAir tempDewpointWater temp
2014-Oct-19 23:25N 39°51' E 012°27'7 3.8
2014-Oct-19 21:29N 39°46' E 012°20'13713.2
2014-Oct-19 11:07N 38°33' E 009°51'713.4
2014-Oct-19 10:33N 38°28' E 009°43'1313.3
2014-Oct-19 09:33N 38°21' E 009°28'1313.3
2014-Oct-19 08:33N 38°14' E 009°14'1413.3
2014-Oct-19 07:32N 38°06' E 008°60'1313.4
2014-Oct-19 06:32N 37°59' E 008°46'1313.2
2014-Oct-19 05:33N 37°52' E 008°32'1413.6
2014-Oct-19 04:33N 37°45' E 008°17'1413.9
2014-Oct-19 03:33N 37°37' E 008°03'1414.1
2014-Oct-19 02:32N 37°29' E 007°48'39215.0
2014-Oct-18 00:23N 36°05' W 000°10'1314.3
2014-Oct-17 23:30N 35°53' W 000°13'  
2014-Oct-13 12:33N 38°30' E 003°15'1312.8
2014-Oct-13 11:33N 38°38' E 003°27'1312.9
2014-Oct-13 10:33N 38°47' E 003°39'19914.8
2014-Oct-12 21:07N 41°15' E 006°33'1415.6
2014-Oct-12 20:12N 41°26' E 006°45'1015.5
2014-Oct-12 19:33N 41°34' E 006°53'1716.0
2014-Oct-12 18:30N 41°47' E 007°07'6715.5
2014-Oct-12 14:10N 42°40' E 008°04'4115.5
2014-Oct-12 11:32N 43°03' E 008°50'72 4.0
2014-Oct-11 17:33N 43°35' E 010°19'0 0.0
2014-Oct-11 16:33N 43°35' E 010°19'0 0.0
2014-Oct-11 15:33N 43°35' E 010°19'0 0.0
2014-Oct-11 14:33N 43°35' E 010°19'0 0.0
2014-Oct-11 13:33N 43°35' E 010°19'0 0.0
2014-Oct-11 12:33N 43°35' E 010°19'0 0.0
2014-Oct-11 11:33N 43°35' E 010°19'0 0.0
2014-Oct-11 10:33N 43°35' E 010°19'0 0.0
2014-Oct-11 09:33N 43°35' E 010°19'0 0.0
2014-Oct-11 08:33N 43°35' E 010°19'0 0.0
2014-Oct-11 07:33N 43°35' E 010°19'0 0.0
2014-Oct-11 06:33N 43°35' E 010°19'0 0.0
2014-Oct-11 05:33N 43°35' E 010°19'0 0.0
2014-Oct-11 04:33N 43°35' E 010°19'0 0.0
2014-Oct-11 03:33N 43°35' E 010°19'0 0.0
2014-Oct-11 02:30N 43°35' E 010°19'0 0.0
2014-Oct-11 01:33N 43°35' E 010°19'0 0.0
2014-Oct-11 00:30N 43°35' E 010°19'0 0.0
2014-Oct-10 23:33N 43°35' E 010°19'0 0.0
2014-Oct-10 22:33N 43°35' E 010°19'0 0.0
2014-Oct-10 21:33N 43°35' E 010°19'0 0.0
2014-Oct-10 20:33N 43°35' E 010°19'0 0.0
2014-Oct-10 19:33N 43°35' E 010°19'0 0.0
2014-Oct-10 18:27N 43°35' E 010°19'0 0.0
2014-Oct-10 17:33N 43°35' E 010°19'0 0.0
2014-Oct-10 16:33N 43°35' E 010°19'0 0.0
2014-Oct-10 15:33N 43°35' E 010°19'0 0.0
2014-Oct-10 14:33N 43°35' E 010°19'0 0.1
2014-Oct-10 13:33N 43°35' E 010°19'5 5.3
2014-Oct-10 12:33N 43°30' E 010°16'1 1.0
2014-Oct-10 11:31N 43°29' E 010°17'0 0.0
2014-Oct-10 10:31N 43°29' E 010°17'0 0.0
2014-Oct-10 09:31N 43°29' E 010°17'0 0.0
2014-Oct-10 08:31N 43°29' E 010°17'0 0.0
2014-Oct-10 07:31N 43°29' E 010°17'0 0.0
2014-Oct-10 06:31N 43°29' E 010°17'  
Track history (hours):
 
Tides and Currents Weather Stations Pressure Air Temp Water Temp Dewpoint Dewpoint Depression Visibility Wind Speed Wind Dir Waves Ship Positions

Rhourd El Adra

Last reported at 2014-Oct-19 23:25 UTC. Time now 2014-Oct-21 18:29 UTC.
Position N 39°51' E 012°27'.

Length 156 m; draft 9 m.

Type: Ship (hazmat cat C). MMSI: 605026210.

Date/timePositionNaut miles runAvg speedWind from/ knotsBaromVisibWave heightAir tempDewpointWater temp
2014-Oct-19 23:25N 39°51' E 012°27'7 3.8
2014-Oct-19 21:29N 39°46' E 012°20'13713.2
2014-Oct-19 11:07N 38°33' E 009°51'713.4
2014-Oct-19 10:33N 38°28' E 009°43'1313.3
2014-Oct-19 09:33N 38°21' E 009°28'1313.3
2014-Oct-19 08:33N 38°14' E 009°14'1413.3
2014-Oct-19 07:32N 38°06' E 008°60'1313.4
2014-Oct-19 06:32N 37°59' E 008°46'1313.2
2014-Oct-19 05:33N 37°52' E 008°32'1413.6
2014-Oct-19 04:33N 37°45' E 008°17'1413.9
2014-Oct-19 03:33N 37°37' E 008°03'1414.1
2014-Oct-19 02:32N 37°29' E 007°48'39215.0
2014-Oct-18 00:23N 36°05' W 000°10'1314.3
2014-Oct-17 23:30N 35°53' W 000°13'  
2014-Oct-13 12:33N 38°30' E 003°15'1312.8
2014-Oct-13 11:33N 38°38' E 003°27'1312.9
2014-Oct-13 10:33N 38°47' E 003°39'19914.8
2014-Oct-12 21:07N 41°15' E 006°33'1415.6
2014-Oct-12 20:12N 41°26' E 006°45'1015.5
2014-Oct-12 19:33N 41°34' E 006°53'1716.0
2014-Oct-12 18:30N 41°47' E 007°07'6715.5
2014-Oct-12 14:10N 42°40' E 008°04'4115.5
2014-Oct-12 11:32N 43°03' E 008°50'72 4.0
2014-Oct-11 17:33N 43°35' E 010°19'0 0.0
2014-Oct-11 16:33N 43°35' E 010°19'0 0.0
2014-Oct-11 15:33N 43°35' E 010°19'0 0.0
2014-Oct-11 14:33N 43°35' E 010°19'0 0.0
2014-Oct-11 13:33N 43°35' E 010°19'0 0.0
2014-Oct-11 12:33N 43°35' E 010°19'0 0.0
2014-Oct-11 11:33N 43°35' E 010°19'0 0.0
2014-Oct-11 10:33N 43°35' E 010°19'0 0.0
2014-Oct-11 09:33N 43°35' E 010°19'0 0.0
2014-Oct-11 08:33N 43°35' E 010°19'0 0.0
2014-Oct-11 07:33N 43°35' E 010°19'0 0.0
2014-Oct-11 06:33N 43°35' E 010°19'0 0.0
2014-Oct-11 05:33N 43°35' E 010°19'0 0.0
2014-Oct-11 04:33N 43°35' E 010°19'0 0.0
2014-Oct-11 03:33N 43°35' E 010°19'0 0.0
2014-Oct-11 02:30N 43°35' E 010°19'0 0.0
2014-Oct-11 01:33N 43°35' E 010°19'0 0.0
2014-Oct-11 00:30N 43°35' E 010°19'0 0.0
2014-Oct-10 23:33N 43°35' E 010°19'0 0.0
2014-Oct-10 22:33N 43°35' E 010°19'0 0.0
2014-Oct-10 21:33N 43°35' E 010°19'0 0.0
2014-Oct-10 20:33N 43°35' E 010°19'0 0.0
2014-Oct-10 19:33N 43°35' E 010°19'0 0.0
2014-Oct-10 18:27N 43°35' E 010°19'0 0.0
2014-Oct-10 17:33N 43°35' E 010°19'0 0.0
2014-Oct-10 16:33N 43°35' E 010°19'0 0.0
2014-Oct-10 15:33N 43°35' E 010°19'0 0.0
2014-Oct-10 14:33N 43°35' E 010°19'0 0.1
2014-Oct-10 13:33N 43°35' E 010°19'5 5.3
2014-Oct-10 12:33N 43°30' E 010°16'1 1.0
2014-Oct-10 11:31N 43°29' E 010°17'0 0.0
2014-Oct-10 10:31N 43°29' E 010°17'0 0.0
2014-Oct-10 09:31N 43°29' E 010°17'0 0.0
2014-Oct-10 08:31N 43°29' E 010°17'0 0.0
2014-Oct-10 07:31N 43°29' E 010°17'0 0.0
2014-Oct-10 06:31N 43°29' E 010°17'  

Dump ship's entire track history